createdAt,value
2017-08-17T00:01:45.612Z,7.03
2017-08-17T00:03:47.314Z,7.03
2017-08-17T00:05:48.260Z,6.93
2017-08-17T00:07:49.209Z,7.00
2017-08-17T00:09:50.168Z,6.83
2017-08-17T00:11:51.859Z,7.30
2017-08-17T00:13:52.800Z,7.67
2017-08-17T00:15:53.752Z,7.30
2017-08-17T00:18:01.796Z,6.77
2017-08-17T00:20:03.486Z,6.67
2017-08-17T00:22:04.428Z,6.70
2017-08-17T00:24:05.432Z,6.27
2017-08-17T00:26:06.400Z,7.37
2017-08-17T00:28:07.353Z,7.07
2017-08-17T00:30:08.296Z,6.43
2017-08-17T00:32:09.235Z,7.07
2017-08-17T00:34:10.172Z,6.63
2017-08-17T00:36:11.136Z,7.10
2017-08-17T00:38:12.834Z,6.33
2017-08-17T00:40:13.773Z,7.47
2017-08-17T00:42:14.724Z,8.93
2017-08-17T00:44:15.652Z,8.60
2017-08-17T00:46:16.601Z,9.87
2017-08-17T00:48:17.541Z,9.50
2017-08-17T00:50:18.492Z,8.90
2017-08-17T00:52:19.442Z,8.40
2017-08-17T00:54:21.141Z,8.27
2017-08-17T00:56:22.097Z,9.17
2017-08-17T00:58:23.056Z,9.33
2017-08-17T01:00:24.764Z,9.00
2017-08-17T01:02:25.699Z,9.33
2017-08-17T01:04:26.664Z,8.87
2017-08-17T01:06:27.626Z,9.00
2017-08-17T01:08:29.325Z,9.43
2017-08-17T01:10:30.276Z,8.63
2017-08-17T01:12:31.213Z,9.43
2017-08-17T01:14:32.149Z,9.53
2017-08-17T01:16:33.084Z,8.80
2017-08-17T01:18:34.032Z,9.17
2017-08-17T01:20:35.054Z,9.00
2017-08-17T01:22:36.009Z,9.23
2017-08-17T01:24:36.940Z,8.77
2017-08-17T01:26:37.905Z,9.17
2017-08-17T01:28:39.601Z,10.07
2017-08-17T01:30:40.605Z,9.70
2017-08-17T01:32:41.570Z,10.60
2017-08-17T01:34:42.530Z,9.00
2017-08-17T01:36:43.488Z,9.07
2017-08-17T01:38:45.195Z,9.27
2017-08-17T01:40:46.156Z,10.53
2017-08-17T01:42:47.129Z,11.60
2017-08-17T01:44:48.076Z,9.80
2017-08-17T01:46:49.040Z,10.83
2017-08-17T01:48:50.034Z,10.97
2017-08-17T01:50:51.726Z,10.30
2017-08-17T01:52:52.673Z,11.63
2017-08-17T01:54:53.828Z,11.13
2017-08-17T01:56:54.760Z,10.00
2017-08-17T01:58:55.708Z,11.50
2017-08-17T02:00:56.698Z,10.90
2017-08-17T02:02:57.664Z,11.23
2017-08-17T02:04:58.608Z,11.90
2017-08-17T02:07:00.344Z,11.30
2017-08-17T02:09:01.283Z,11.90
2017-08-17T02:11:02.237Z,11.70
2017-08-17T02:13:03.208Z,12.73
2017-08-17T02:15:04.156Z,11.80
2017-08-17T02:17:05.105Z,13.63
2017-08-17T02:19:08.864Z,13.27
2017-08-17T02:21:09.792Z,11.83
2017-08-17T02:23:11.655Z,13.53
2017-08-17T02:25:13.340Z,13.10
2017-08-17T02:27:14.283Z,12.47
2017-08-17T02:29:15.238Z,13.83
2017-08-17T02:31:16.180Z,12.63
2017-08-17T02:33:17.116Z,12.70
2017-08-17T02:35:18.057Z,12.30
2017-08-17T02:37:18.997Z,14.43
2017-08-17T02:39:20.004Z,14.50
2017-08-17T02:41:20.941Z,12.93
2017-08-17T02:43:21.892Z,14.10
2017-08-17T02:45:22.840Z,12.53
2017-08-17T02:47:23.780Z,14.33
2017-08-17T02:49:24.712Z,14.17
2017-08-17T02:51:25.645Z,14.93
2017-08-17T02:53:26.580Z,13.97
2017-08-17T02:55:27.514Z,14.13
2017-08-17T02:57:28.459Z,14.50
2017-08-17T02:59:29.388Z,13.97
2017-08-17T03:01:30.332Z,15.93
2017-08-17T03:03:31.268Z,14.37
2017-08-17T03:05:32.208Z,14.70
2017-08-17T03:07:33.136Z,16.23
2017-08-17T03:09:34.072Z,16.53
2017-08-17T03:11:35.008Z,16.77
2017-08-17T03:13:35.941Z,16.27
2017-08-17T03:15:36.885Z,17.30
2017-08-17T03:17:37.820Z,16.97
2017-08-17T03:19:39.500Z,17.50
2017-08-17T03:21:40.444Z,18.13
2017-08-17T03:23:41.397Z,19.00
2017-08-17T03:25:42.370Z,19.00
2017-08-17T03:27:44.073Z,19.20
2017-08-17T03:29:45.004Z,19.27
2017-08-17T03:31:45.956Z,18.30
2017-08-17T03:33:46.918Z,18.73
2017-08-17T03:35:47.888Z,18.43
2017-08-17T03:37:49.557Z,18.40
2017-08-17T03:39:50.506Z,20.20
2017-08-17T03:41:51.452Z,19.93
2017-08-17T03:43:52.396Z,19.27
2017-08-17T03:45:53.340Z,19.20
2017-08-17T03:47:54.273Z,20.60
2017-08-17T03:49:55.228Z,21.37
2017-08-17T03:51:56.168Z,20.00
2017-08-17T03:53:57.100Z,21.43
2017-08-17T03:55:58.036Z,20.70
2017-08-17T03:57:58.976Z,22.40
2017-08-17T03:59:59.916Z,20.30
2017-08-17T04:02:00.861Z,21.40
2017-08-17T04:04:01.794Z,21.80
2017-08-17T04:06:02.740Z,20.00
2017-08-17T04:08:03.681Z,21.33
2017-08-17T04:10:04.609Z,21.33
2017-08-17T04:12:05.552Z,22.00
2017-08-17T04:14:06.485Z,22.93
2017-08-17T04:16:07.433Z,22.43
2017-08-17T04:18:08.361Z,22.33
2017-08-17T04:20:09.288Z,21.90
2017-08-17T04:22:10.229Z,21.70
2017-08-17T04:24:11.160Z,23.50
2017-08-17T04:26:12.107Z,22.57
2017-08-17T04:28:13.045Z,21.93
2017-08-17T04:30:13.972Z,22.27
2017-08-17T04:32:14.912Z,23.00
2017-08-17T04:34:15.856Z,23.90
2017-08-17T04:36:16.801Z,24.23
2017-08-17T04:38:17.736Z,23.73
2017-08-17T04:40:18.672Z,24.93
2017-08-17T04:42:19.607Z,25.93
2017-08-17T04:44:20.557Z,24.70
2017-08-17T04:46:21.492Z,25.40
2017-08-17T04:48:22.440Z,26.93
2017-08-17T04:50:23.381Z,26.07
2017-08-17T04:52:24.326Z,24.97
2017-08-17T04:54:26.031Z,24.87
2017-08-17T04:56:45.684Z,24.23
2017-08-17T04:58:46.629Z,26.80
2017-08-17T05:00:47.557Z,25.90
2017-08-17T05:02:48.492Z,25.40
2017-08-17T05:04:49.433Z,25.07
2017-08-17T05:06:50.369Z,25.30
2017-08-17T05:08:51.304Z,26.27
2017-08-17T05:10:52.229Z,26.10
2017-08-17T05:12:53.188Z,27.40
2017-08-17T05:14:54.132Z,25.63
2017-08-17T05:16:55.076Z,27.30
2017-08-17T05:18:56.015Z,26.57
2017-08-17T05:20:56.968Z,26.50
2017-08-17T05:22:57.918Z,26.70
2017-08-17T05:24:59.597Z,27.97
2017-08-17T05:27:00.528Z,26.20
2017-08-17T05:29:01.473Z,25.80
2017-08-17T05:31:02.673Z,23.90
2017-08-17T05:33:04.369Z,25.33
2017-08-17T05:35:05.312Z,25.10
2017-08-17T05:37:06.240Z,27.53
2017-08-17T05:39:07.189Z,26.30
2017-08-17T05:41:08.140Z,25.67
2017-08-17T05:43:09.092Z,25.77
2017-08-17T05:45:10.036Z,26.43
2017-08-17T05:47:11.260Z,26.53
2017-08-17T05:49:12.361Z,25.43
2017-08-17T05:51:13.312Z,24.17
2017-08-17T05:53:14.243Z,23.63
2017-08-17T05:55:15.188Z,23.67
2017-08-17T05:57:16.134Z,22.60
2017-08-17T05:59:17.069Z,22.60
2017-08-17T06:01:18.113Z,23.20
2017-08-17T06:03:19.056Z,22.60
2017-08-17T06:05:20.012Z,24.13
2017-08-17T06:07:21.680Z,22.80
2017-08-17T06:09:22.617Z,24.27
2017-08-17T06:11:23.572Z,23.23
2017-08-17T06:13:24.496Z,24.20
2017-08-17T06:15:25.445Z,23.33
2017-08-17T06:17:26.384Z,24.63
2017-08-17T06:19:27.316Z,25.93
2017-08-17T06:21:28.253Z,23.50
2017-08-17T06:23:29.188Z,24.17
2017-08-17T06:25:30.129Z,23.80
2017-08-17T06:27:31.072Z,23.80
2017-08-17T06:29:32.028Z,23.03
2017-08-17T06:31:32.959Z,24.80
2017-08-17T06:33:33.960Z,25.30
2017-08-17T06:35:34.881Z,25.80
2017-08-17T06:37:35.820Z,24.97
2017-08-17T06:39:36.761Z,25.07
2017-08-17T06:41:37.696Z,25.50
2017-08-17T06:43:38.687Z,24.90
2017-08-17T06:45:39.628Z,25.50
2017-08-17T06:47:40.595Z,23.87
2017-08-17T06:49:41.538Z,23.77
2017-08-17T06:51:42.528Z,22.30
2017-08-17T06:53:43.471Z,24.50
2017-08-17T06:55:45.168Z,23.67
2017-08-17T06:57:46.103Z,22.30
2017-08-17T06:59:47.074Z,22.77
2017-08-17T07:01:48.024Z,22.17
2017-08-17T07:03:48.967Z,22.97
2017-08-17T07:05:49.900Z,21.33
2017-08-17T07:07:50.997Z,22.80
2017-08-17T07:09:52.047Z,21.30
2017-08-17T07:11:52.980Z,20.80
2017-08-17T07:13:53.927Z,21.40
2017-08-17T07:15:54.856Z,20.60
2017-08-17T07:17:55.789Z,19.67
2017-08-17T07:19:56.719Z,20.50
2017-08-17T07:21:57.681Z,19.33
2017-08-17T07:23:58.619Z,19.73
2017-08-17T07:25:59.552Z,19.00
2017-08-17T07:28:00.487Z,20.93
2017-08-17T07:30:01.424Z,19.93
2017-08-17T07:32:02.364Z,19.20
2017-08-17T07:34:03.299Z,19.23
2017-08-17T07:36:05.179Z,20.10
2017-08-17T07:38:06.844Z,19.27
2017-08-17T07:40:07.783Z,18.13
2017-08-17T07:42:08.712Z,17.40
2017-08-17T07:44:09.644Z,19.47
2017-08-17T07:46:10.580Z,16.97
2017-08-17T07:48:11.537Z,18.00
2017-08-17T07:50:12.489Z,19.37
2017-08-17T07:52:13.668Z,19.00
2017-08-17T07:54:14.620Z,19.90
2017-08-17T07:56:15.553Z,18.37
2017-08-17T07:58:17.233Z,16.23
2017-08-17T08:00:18.177Z,15.90
2017-08-17T08:02:19.108Z,15.80
2017-08-17T08:04:20.052Z,14.97
2017-08-17T08:06:20.980Z,13.03
2017-08-17T08:08:22.030Z,12.57
2017-08-17T08:10:23.084Z,12.30
2017-08-17T08:12:24.015Z,10.93
2017-08-17T08:14:24.953Z,9.90
2017-08-17T08:16:25.915Z,9.70
2017-08-17T08:18:26.920Z,9.43
2017-08-17T08:20:27.988Z,8.77
2017-08-17T08:22:29.954Z,9.90
2017-08-17T08:24:30.898Z,8.70
2017-08-17T08:26:31.920Z,8.77
2017-08-17T08:28:33.597Z,9.73
2017-08-17T08:30:34.542Z,10.60
2017-08-17T08:32:35.477Z,8.90
2017-08-17T08:34:36.504Z,9.83
2017-08-17T08:36:37.629Z,8.37
2017-08-17T08:38:38.565Z,9.83
2017-08-17T08:40:40.240Z,8.93
2017-08-17T08:42:41.184Z,9.07
2017-08-17T08:44:42.121Z,9.20
2017-08-17T08:46:43.060Z,9.07
2017-08-17T08:48:44.003Z,9.63
2017-08-17T08:50:44.931Z,9.03
2017-08-17T08:52:46.157Z,9.77
2017-08-17T08:54:47.091Z,8.63
2017-08-17T08:56:48.039Z,9.27
2017-08-17T08:58:48.982Z,10.00
2017-08-17T09:00:49.914Z,9.07
2017-08-17T09:02:50.857Z,8.17
2017-08-17T09:04:51.800Z,7.97
2017-08-17T09:06:52.748Z,9.60
2017-08-17T09:08:53.672Z,9.07
2017-08-17T09:10:54.612Z,8.60
2017-08-17T09:12:55.640Z,8.90
2017-08-17T09:14:56.576Z,9.30
2017-08-17T09:16:57.528Z,8.60
2017-08-17T09:18:58.463Z,9.20
2017-08-17T09:20:59.429Z,8.40
2017-08-17T09:23:01.116Z,10.50
2017-08-17T09:25:02.052Z,9.07
2017-08-17T09:27:03.008Z,8.77
2017-08-17T09:29:03.940Z,8.90
2017-08-17T09:31:04.875Z,8.83
2017-08-17T09:33:05.821Z,8.93
2017-08-17T09:35:06.752Z,8.50
2017-08-17T09:37:07.691Z,6.43
2017-08-17T09:39:08.936Z,6.70
2017-08-17T09:41:09.868Z,6.63
2017-08-17T09:43:17.900Z,6.77
2017-08-17T09:45:18.828Z,7.03
2017-08-17T09:47:19.776Z,7.07
2017-08-17T09:49:21.456Z,7.93
2017-08-17T09:51:22.388Z,7.80
2017-08-17T09:53:23.332Z,7.00
2017-08-17T09:55:24.257Z,6.23
2017-08-17T09:57:25.191Z,6.50
2017-08-17T09:59:26.133Z,5.10
2017-08-17T10:01:27.076Z,6.40
2017-08-17T10:03:28.016Z,5.90
2017-08-17T10:05:28.953Z,6.33
2017-08-17T10:07:29.882Z,6.40
2017-08-17T10:09:30.825Z,6.53
2017-08-17T10:11:31.749Z,6.67
2017-08-17T10:13:32.700Z,6.70
2017-08-17T10:15:33.630Z,6.13
2017-08-17T10:17:34.556Z,7.17
2017-08-17T10:19:35.489Z,7.57
2017-08-17T10:21:36.454Z,7.03
2017-08-17T10:23:37.401Z,7.10
2017-08-17T10:25:38.380Z,7.23
2017-08-17T10:27:39.325Z,7.50
2017-08-17T10:29:40.265Z,6.60
2017-08-17T10:31:41.203Z,7.30
2017-08-17T10:33:42.137Z,5.83
2017-08-17T10:35:43.084Z,6.77
2017-08-17T10:37:44.022Z,6.37
2017-08-17T10:39:44.957Z,5.30
2017-08-17T10:41:45.880Z,6.17
2017-08-17T10:43:46.817Z,5.30
2017-08-17T10:45:47.751Z,5.20
2017-08-17T10:47:48.692Z,4.90
2017-08-17T10:49:49.620Z,4.87
2017-08-17T10:51:50.549Z,5.33
2017-08-17T10:53:51.481Z,5.00
2017-08-17T10:55:52.417Z,5.70
2017-08-17T10:57:53.352Z,4.53
2017-08-17T10:59:54.380Z,4.47
2017-08-17T11:01:55.380Z,4.90
2017-08-17T11:03:56.340Z,4.63
2017-08-17T11:05:58.064Z,4.63
2017-08-17T11:07:58.997Z,4.33
2017-08-17T11:09:59.932Z,5.37
2017-08-17T11:12:00.888Z,4.83
2017-08-17T11:14:01.815Z,4.60
2017-08-17T11:16:02.744Z,4.80
2017-08-17T11:18:03.670Z,3.70
2017-08-17T11:20:04.612Z,4.50
2017-08-17T11:22:05.560Z,4.13
2017-08-17T11:24:06.488Z,4.13
2017-08-17T11:26:07.419Z,4.33
2017-08-17T11:28:08.340Z,4.83
2017-08-17T11:30:09.279Z,4.30
2017-08-17T11:32:10.208Z,4.60
2017-08-17T11:34:11.151Z,4.60
2017-08-17T11:36:12.091Z,4.23
2017-08-17T11:38:13.071Z,4.70
2017-08-17T11:40:14.040Z,4.83
2017-08-17T11:42:14.980Z,4.40
2017-08-17T11:44:15.904Z,4.47
2017-08-17T11:46:16.852Z,4.90
2017-08-17T11:48:17.808Z,5.00
2017-08-17T11:50:18.744Z,4.57
2017-08-17T11:52:19.686Z,4.33
2017-08-17T11:54:20.617Z,4.97
2017-08-17T11:56:21.631Z,4.30
2017-08-17T11:58:22.554Z,4.77
2017-08-17T12:00:23.496Z,4.17
2017-08-17T12:02:24.437Z,4.17
2017-08-17T12:04:25.377Z,3.63
2017-08-17T12:06:26.312Z,3.70
2017-08-17T12:08:27.245Z,3.97
2017-08-17T12:10:28.173Z,3.50
2017-08-17T12:12:29.112Z,3.70
2017-08-17T12:14:30.040Z,3.50
2017-08-17T12:16:30.973Z,3.43
2017-08-17T12:18:31.903Z,3.93
2017-08-17T12:20:32.877Z,3.73
2017-08-17T12:22:33.851Z,3.70
2017-08-17T12:24:34.780Z,3.90
2017-08-17T12:26:36.456Z,3.87
2017-08-17T12:28:37.402Z,3.50
2017-08-17T12:30:38.360Z,3.40
2017-08-17T12:32:39.280Z,4.37
2017-08-17T12:34:40.212Z,3.53
2017-08-17T12:36:41.145Z,3.67
2017-08-17T12:38:42.084Z,3.97
2017-08-17T12:40:43.021Z,4.37
2017-08-17T12:42:43.976Z,4.10
2017-08-17T12:44:44.909Z,3.90
2017-08-17T12:46:45.845Z,4.00
2017-08-17T12:48:46.794Z,3.80
2017-08-17T12:50:47.725Z,4.40
2017-08-17T12:52:48.668Z,3.77
2017-08-17T12:54:49.606Z,3.63
2017-08-17T12:56:50.536Z,4.20
2017-08-17T12:58:51.492Z,4.10
2017-08-17T13:00:53.168Z,5.50
2017-08-17T13:02:54.097Z,4.30
2017-08-17T13:04:55.028Z,4.83
2017-08-17T13:06:55.958Z,4.93
2017-08-17T13:08:57.616Z,4.60
2017-08-17T13:10:58.553Z,5.00
2017-08-17T13:12:59.484Z,4.70
2017-08-17T13:15:00.413Z,4.83
2017-08-17T13:17:01.332Z,5.30
2017-08-17T13:19:02.997Z,5.07
2017-08-17T13:21:04.676Z,5.53
2017-08-17T13:23:05.604Z,5.40
2017-08-17T13:25:06.564Z,5.20
2017-08-17T13:27:07.519Z,5.30
2017-08-17T13:29:08.448Z,4.90
2017-08-17T13:31:09.453Z,5.07
2017-08-17T13:33:10.376Z,6.93
2017-08-17T13:35:11.320Z,5.20
2017-08-17T13:37:12.264Z,5.80
2017-08-17T13:39:13.216Z,5.80
2017-08-17T13:41:14.152Z,6.00
2017-08-17T13:43:15.083Z,6.10
2017-08-17T13:45:16.033Z,6.27
2017-08-17T13:47:16.983Z,5.40
2017-08-17T13:49:17.920Z,4.73
2017-08-17T13:51:19.624Z,5.93
2017-08-17T13:53:20.549Z,5.50
2017-08-17T13:55:21.472Z,6.50
2017-08-17T13:57:23.169Z,6.50
2017-08-17T13:59:24.092Z,5.93
2017-08-17T14:01:25.024Z,5.35
2017-08-17T14:03:25.956Z,6.30
2017-08-17T14:05:26.888Z,6.30
2017-08-17T14:07:27.836Z,6.10
2017-08-17T14:09:28.776Z,6.20
2017-08-17T14:11:29.760Z,6.13
2017-08-17T14:13:31.433Z,6.07
2017-08-17T14:15:32.360Z,6.13
2017-08-17T14:17:34.036Z,5.43
2017-08-17T14:19:34.969Z,5.83
2017-08-17T14:21:35.916Z,5.90
2017-08-17T14:23:36.852Z,6.10
2017-08-17T14:25:37.804Z,6.33
2017-08-17T14:27:38.744Z,5.90
2017-08-17T14:29:39.673Z,5.27
2017-08-17T14:31:40.788Z,5.80
2017-08-17T14:33:41.724Z,5.60
2017-08-17T14:35:42.657Z,5.43
2017-08-17T14:37:43.589Z,5.30
2017-08-17T14:39:44.536Z,5.47
2017-08-17T14:41:45.461Z,5.80
2017-08-17T14:43:46.417Z,5.33
2017-08-17T14:45:47.365Z,5.10
2017-08-17T14:47:48.551Z,5.30
2017-08-17T14:49:50.292Z,5.07
2017-08-17T14:51:51.219Z,4.80
2017-08-17T14:53:52.177Z,5.70
2017-08-17T14:55:53.853Z,4.93
2017-08-17T14:57:54.792Z,5.27
2017-08-17T14:59:55.724Z,5.00
2017-08-17T15:01:56.665Z,5.80
2017-08-17T15:03:57.604Z,4.77
2017-08-17T15:05:58.532Z,5.53
2017-08-17T15:07:59.480Z,5.67
2017-08-17T15:10:00.433Z,5.63
2017-08-17T15:12:01.369Z,5.40
2017-08-17T15:14:02.304Z,5.97
2017-08-17T15:16:03.244Z,5.77
2017-08-17T15:18:04.193Z,5.20
2017-08-17T15:20:05.125Z,6.33
2017-08-17T15:22:06.097Z,5.87
2017-08-17T15:24:07.048Z,6.00
2017-08-17T15:26:07.985Z,6.33
2017-08-17T15:28:08.913Z,5.87
2017-08-17T15:30:09.856Z,6.00
2017-08-17T15:32:10.780Z,5.70
2017-08-17T15:34:11.807Z,6.40
2017-08-17T15:36:12.728Z,5.93
2017-08-17T15:38:14.397Z,6.27
2017-08-17T15:40:15.340Z,6.53
2017-08-17T15:42:16.277Z,6.70
2017-08-17T15:44:17.202Z,6.13
2017-08-17T15:46:18.138Z,6.53
2017-08-17T15:48:19.068Z,6.83
2017-08-17T15:50:20.220Z,7.23
2017-08-17T15:52:21.157Z,7.07
2017-08-17T15:54:22.088Z,7.83
2017-08-17T15:56:23.023Z,6.83
2017-08-17T15:58:23.953Z,7.37
2017-08-17T16:00:24.887Z,8.13
2017-08-17T16:02:25.830Z,8.27
2017-08-17T16:04:26.765Z,9.40
2017-08-17T16:06:27.701Z,10.23
2017-08-17T16:08:28.640Z,10.40
2017-08-17T16:10:29.601Z,9.03
2017-08-17T16:12:30.532Z,10.03
2017-08-17T16:14:31.466Z,8.80
2017-08-17T16:18:40.182Z,9.73
2017-08-17T16:20:41.127Z,10.47
2017-08-17T16:22:42.061Z,10.10
2017-08-17T16:24:43.001Z,10.10
2017-08-17T16:26:43.948Z,11.00
2017-08-17T16:28:44.877Z,9.43
2017-08-17T16:30:45.819Z,10.77
2017-08-17T16:32:46.760Z,10.57
2017-08-17T16:34:47.687Z,10.63
2017-08-17T16:36:48.632Z,11.17
2017-08-17T16:38:49.567Z,11.43
2017-08-17T16:40:50.497Z,10.13
2017-08-17T16:42:51.437Z,10.53
2017-08-17T16:44:52.393Z,11.87
2017-08-17T16:46:53.331Z,11.73
2017-08-17T16:48:55.300Z,11.17
2017-08-17T16:50:57.008Z,11.83
2017-08-17T16:52:57.937Z,11.73
2017-08-17T16:54:58.872Z,11.97
2017-08-17T16:57:28.673Z,11.47
2017-08-17T16:59:29.604Z,11.13
2017-08-17T17:01:30.548Z,11.83
2017-08-17T17:03:31.484Z,12.90
2017-08-17T17:05:32.425Z,12.10
2017-08-17T17:07:33.609Z,11.20
2017-08-17T17:09:34.543Z,12.30
2017-08-17T17:11:35.484Z,12.10
2017-08-17T17:13:37.179Z,12.70
2017-08-17T17:15:38.116Z,12.60
2017-08-17T17:17:39.052Z,12.47
2017-08-17T17:19:39.988Z,12.63
2017-08-17T17:21:40.918Z,12.87
2017-08-17T17:23:41.862Z,12.97
2017-08-17T17:25:42.800Z,13.20
2017-08-17T17:27:43.736Z,13.40
2017-08-17T17:29:44.676Z,13.67
2017-08-17T17:31:45.612Z,13.70
2017-08-17T17:33:46.551Z,13.10
2017-08-17T17:35:47.479Z,13.77
2017-08-17T17:37:48.416Z,13.93
2017-08-17T17:39:49.344Z,13.20
2017-08-17T17:41:50.281Z,12.97
2017-08-17T17:43:51.226Z,13.40
2017-08-17T17:45:52.183Z,12.93
2017-08-17T17:47:53.161Z,13.87
2017-08-17T17:49:54.100Z,13.00
2017-08-17T17:51:55.041Z,12.70
2017-08-17T17:53:56.035Z,12.80
2017-08-17T17:55:57.116Z,13.80
2017-08-17T17:57:58.048Z,14.00
2017-08-17T17:59:58.973Z,14.33
2017-08-17T18:02:00.033Z,15.00
2017-08-17T18:04:00.977Z,13.43
2017-08-17T18:06:01.912Z,13.70
2017-08-17T18:08:02.843Z,13.47
2017-08-17T18:10:03.789Z,13.80
2017-08-17T18:12:04.741Z,14.30
2017-08-17T18:14:05.677Z,14.63
2017-08-17T18:16:06.612Z,13.90
2017-08-17T18:18:07.585Z,14.43
2017-08-17T18:20:09.251Z,14.70
2017-08-17T18:22:10.200Z,15.30
2017-08-17T18:24:11.217Z,14.80
2017-08-17T18:26:12.156Z,16.87
2017-08-17T18:28:13.119Z,16.20
2017-08-17T18:30:14.068Z,15.80
2017-08-17T18:32:15.032Z,14.97
2017-08-17T18:34:16.093Z,14.60
2017-08-17T18:36:17.175Z,14.30
2017-08-17T18:38:18.217Z,13.60
2017-08-17T18:40:19.192Z,14.40
2017-08-17T18:42:20.868Z,15.33
2017-08-17T18:44:21.819Z,13.97
2017-08-17T18:46:22.774Z,15.40
2017-08-17T18:48:23.733Z,15.63
2017-08-17T18:50:24.684Z,14.83
2017-08-17T18:52:26.433Z,13.87
2017-08-17T18:54:27.375Z,14.73
2017-08-17T18:56:29.324Z,15.23
2017-08-17T18:58:30.256Z,16.47
2017-08-17T19:00:31.200Z,15.67
2017-08-17T19:02:32.132Z,16.13
2017-08-17T19:04:33.829Z,16.70
2017-08-17T19:06:34.772Z,14.67
2017-08-17T19:08:35.728Z,14.20
2017-08-17T19:10:36.843Z,16.37
2017-08-17T19:12:37.835Z,15.33
2017-08-17T19:14:38.772Z,15.90
2017-08-17T19:16:39.707Z,15.57
2017-08-17T19:18:41.386Z,16.23
2017-08-17T19:20:42.331Z,15.23
2017-08-17T19:22:43.272Z,14.40
2017-08-17T19:24:44.280Z,13.53
2017-08-17T19:26:47.153Z,13.60
2017-08-17T19:28:48.112Z,13.80
2017-08-17T19:30:49.104Z,14.40
2017-08-17T19:32:50.115Z,13.37
2017-08-17T19:34:51.152Z,13.53
2017-08-17T19:36:52.104Z,13.83
2017-08-17T19:38:53.264Z,13.50
2017-08-17T19:40:54.197Z,12.77
2017-08-17T19:42:55.137Z,11.93
2017-08-17T19:44:56.092Z,12.07
2017-08-17T19:46:57.044Z,10.70
2017-08-17T19:48:58.251Z,10.73
2017-08-17T19:51:00.040Z,11.40
2017-08-17T19:53:01.076Z,11.83
2017-08-17T19:55:02.301Z,10.90
2017-08-17T19:57:03.995Z,10.90
2017-08-17T19:59:04.932Z,10.90
2017-08-17T20:01:06.004Z,10.43
2017-08-17T20:03:06.935Z,10.77
2017-08-17T20:05:09.944Z,11.07
2017-08-17T20:07:11.816Z,9.97
2017-08-17T20:09:12.816Z,10.00
2017-08-17T20:11:13.756Z,11.63
2017-08-17T20:13:14.684Z,11.60
2017-08-17T20:15:15.829Z,11.93
2017-08-17T20:17:16.776Z,11.30
2017-08-17T20:19:17.717Z,12.33
2017-08-17T20:21:19.400Z,12.63
2017-08-17T20:23:20.336Z,11.87
2017-08-17T20:25:21.314Z,11.10
2017-08-17T20:27:22.249Z,10.60
2017-08-17T20:29:23.179Z,10.77
2017-08-17T20:31:24.112Z,11.83
2017-08-17T20:33:25.058Z,12.17
2017-08-17T20:35:26.005Z,11.20
2017-08-17T20:37:26.944Z,12.93
2017-08-17T20:39:28.608Z,12.20
2017-08-17T20:41:29.549Z,12.07
2017-08-17T20:43:30.476Z,14.17
2017-08-17T20:45:32.167Z,13.23
2017-08-17T20:47:33.120Z,13.20
2017-08-17T20:49:34.057Z,13.83
2017-08-17T20:51:34.993Z,13.70
2017-08-17T20:53:36.028Z,13.33
2017-08-17T20:55:36.977Z,15.33
2017-08-17T20:57:37.933Z,15.77
2017-08-17T20:59:39.600Z,14.73
2017-08-17T21:01:40.544Z,15.33
2017-08-17T21:03:41.469Z,14.93
2017-08-17T21:05:43.153Z,14.77
2017-08-17T21:07:44.086Z,14.43
2017-08-17T21:09:45.012Z,16.03
2017-08-17T21:11:45.960Z,15.80
2017-08-17T21:13:53.968Z,15.40
2017-08-17T21:15:54.901Z,14.60
2017-08-17T21:17:56.064Z,14.63
2017-08-17T21:19:57.000Z,14.03
2017-08-17T21:21:57.936Z,15.27
2017-08-17T21:23:58.884Z,16.07
2017-08-17T21:25:59.818Z,16.57
2017-08-17T21:28:00.752Z,15.10
2017-08-17T21:30:01.694Z,15.90
2017-08-17T21:32:02.632Z,15.30
2017-08-17T21:34:03.777Z,14.90
2017-08-17T21:36:04.705Z,15.53
2017-08-17T21:38:05.641Z,13.17
2017-08-17T21:40:06.574Z,15.40
2017-08-17T21:42:07.501Z,14.50
2017-08-17T21:44:08.443Z,12.80
2017-08-17T21:46:09.385Z,11.57
2017-08-17T21:48:10.340Z,12.53
2017-08-17T21:50:11.336Z,11.40
2017-08-17T21:52:12.272Z,10.83
2017-08-17T21:54:13.208Z,11.63
2017-08-17T21:56:14.144Z,10.90
2017-08-17T21:58:15.072Z,12.10
2017-08-17T22:00:16.022Z,11.93
2017-08-17T22:02:16.960Z,12.57
2017-08-17T22:04:17.888Z,12.50
2017-08-17T22:06:18.820Z,12.57
2017-08-17T22:08:19.756Z,13.13
2017-08-17T22:10:20.708Z,12.80
2017-08-17T22:12:21.636Z,13.77
2017-08-17T22:14:22.592Z,14.13
2017-08-17T22:16:23.529Z,14.30
2017-08-17T22:18:25.217Z,14.27
2017-08-17T22:20:26.160Z,14.00
2017-08-17T22:22:27.104Z,15.70
2017-08-17T22:24:28.083Z,14.73
2017-08-17T22:26:29.011Z,14.33
2017-08-17T22:28:29.936Z,14.87
2017-08-17T22:30:30.885Z,14.27
2017-08-17T22:32:31.824Z,12.23
2017-08-17T22:34:33.496Z,13.53
2017-08-17T22:36:34.424Z,12.30
2017-08-17T22:38:36.095Z,11.90
2017-08-17T22:40:37.040Z,11.93
2017-08-17T22:42:37.972Z,11.37
2017-08-17T22:44:38.900Z,11.50
2017-08-17T22:46:39.864Z,10.10
2017-08-17T22:48:40.800Z,10.30
2017-08-17T22:50:41.738Z,9.87
2017-08-17T22:52:42.676Z,10.77
2017-08-17T22:54:43.607Z,10.60
2017-08-17T22:56:44.557Z,10.10
2017-08-17T22:58:45.505Z,10.13
2017-08-17T23:00:46.441Z,9.03
2017-08-17T23:02:47.377Z,9.50
2017-08-17T23:04:48.311Z,10.20
2017-08-17T23:06:49.265Z,9.97
2017-08-17T23:08:50.183Z,10.27
2017-08-17T23:10:51.112Z,10.37
2017-08-17T23:12:52.067Z,11.57
2017-08-17T23:14:53.008Z,10.73
2017-08-17T23:16:54.685Z,10.93
2017-08-17T23:18:55.648Z,11.20
2017-08-17T23:20:56.575Z,11.70
2017-08-17T23:22:57.513Z,11.80
2017-08-17T23:24:58.452Z,11.40
2017-08-17T23:26:59.403Z,11.27
2017-08-17T23:29:00.340Z,12.97
2017-08-17T23:31:01.291Z,11.67
2017-08-17T23:33:02.229Z,11.60
2017-08-17T23:35:03.164Z,10.67
2017-08-17T23:37:04.848Z,11.77
2017-08-17T23:39:05.778Z,11.43
2017-08-17T23:41:06.709Z,10.40
2017-08-17T23:43:07.660Z,10.60
2017-08-17T23:45:08.587Z,11.40
2017-08-17T23:47:09.516Z,11.50
2017-08-17T23:49:10.459Z,10.43
2017-08-17T23:51:11.384Z,11.40
2017-08-17T23:53:12.316Z,11.83
2017-08-17T23:55:14.001Z,11.47
2017-08-17T23:57:14.929Z,11.37
2017-08-17T23:59:15.856Z,11.40
